createdAt,value
2024-03-16T00:19:14.404Z,317
2024-03-16T00:39:14.342Z,313
2024-03-16T00:59:14.360Z,310
2024-03-16T01:19:14.380Z,312
2024-03-16T01:39:14.365Z,311
2024-03-16T01:59:14.349Z,310
2024-03-16T02:19:14.369Z,313
2024-03-16T02:39:14.358Z,308
2024-03-16T03:39:14.389Z,309
2024-03-16T03:59:14.413Z,302
2024-03-16T04:19:14.514Z,303
2024-03-16T04:39:14.402Z,304
2024-03-16T04:59:14.399Z,299
2024-03-16T05:39:14.397Z,306
2024-03-16T05:59:14.431Z,304
2024-03-16T06:19:14.477Z,295
2024-03-16T06:39:14.414Z,297
2024-03-16T06:59:14.448Z,304
2024-03-16T07:19:14.471Z,310
2024-03-16T07:39:14.459Z,304
2024-03-16T07:59:14.454Z,307
2024-03-16T08:39:14.465Z,312
2024-03-16T08:59:14.483Z,309
2024-03-16T09:39:14.481Z,304
2024-03-16T09:59:22.055Z,316
2024-03-16T10:19:14.517Z,307
2024-03-16T10:39:14.518Z,308
2024-03-16T11:39:14.522Z,305
2024-03-16T12:19:14.518Z,301
2024-03-16T12:39:14.524Z,303
2024-03-16T12:59:14.558Z,301
2024-03-16T13:19:14.548Z,294
2024-03-16T13:39:14.547Z,292
2024-03-16T13:59:14.658Z,294
2024-03-16T14:19:14.564Z,292
2024-03-16T14:39:14.598Z,294
2024-03-16T14:59:14.572Z,292
2024-03-16T15:19:14.577Z,290
2024-03-16T15:39:14.595Z,290
2024-03-16T16:19:14.609Z,293
2024-03-16T16:39:14.589Z,289
2024-03-16T16:59:14.594Z,287
2024-03-16T17:19:14.607Z,290
2024-03-16T17:39:17.467Z,284
2024-03-16T18:19:14.617Z,292
2024-03-16T18:39:14.632Z,295
2024-03-16T18:59:14.633Z,293
2024-03-16T19:19:14.636Z,293
2024-03-16T19:39:14.634Z,294
2024-03-16T19:59:14.689Z,292
2024-03-16T20:19:14.657Z,285
2024-03-16T20:39:14.848Z,290
2024-03-16T20:59:14.759Z,286
2024-03-16T21:19:14.665Z,285
2024-03-16T21:39:14.690Z,287
2024-03-16T21:59:14.684Z,286
